Time;durP1;ratioP1;P1;durP2;ratioP2;P2;SDS_P1;SDS_P2;PMS_P1;PMS_P2;Temp;Humidity;BMP_temperature;BMP_pressure;BME280_temperature;BME280_humidity;BME280_pressure;Samples;Min_cycle;Max_cycle;Signal;HPM_P1;HPM_P2
2023/09/20 00:00:37;;;;;;;1.63;1.33;;;;;;;13.63;100.00;99440.53;4842278;29;20742;-89
2023/09/20 00:03:05;;;;;;;1.50;1.40;;;;;;;13.65;100.00;99443.81;4840823;29;20315;-89
2023/09/20 00:05:39;;;;;;;1.67;1.57;;;;;;;13.65;100.00;99438.44;4832808;29;20216;-90
2023/09/20 00:08:09;;;;;;;1.53;1.43;;;;;;;13.65;100.00;99443.81;4860371;29;20208;-90
2023/09/20 00:10:40;;;;;;;1.50;1.40;;;;;;;13.61;100.00;99440.00;4845712;29;20240;-89
2023/09/20 00:13:10;;;;;;;2.00;1.30;;;;;;;13.59;100.00;99440.22;4831065;29;20219;-89
2023/09/20 00:15:40;;;;;;;1.57;1.40;;;;;;;13.64;100.00;99442.19;4839177;29;20205;-90
2023/09/20 00:18:09;;;;;;;1.73;1.40;;;;;;;13.65;100.00;99444.66;4837541;29;20201;-89
2023/09/20 00:20:40;;;;;;;1.97;1.20;;;;;;;13.69;100.00;99447.66;4824759;29;20208;-89
2023/09/20 00:23:09;;;;;;;1.27;1.17;;;;;;;13.68;100.00;99448.72;4860371;29;20240;-89
2023/09/20 00:25:36;;;;;;;1.40;1.30;;;;;;;13.65;100.00;99444.66;4831748;29;20204;-89
2023/09/20 00:28:08;;;;;;;2.63;1.33;;;;;;;13.59;100.00;99442.09;4842754;29;20240;-89
2023/09/20 00:30:37;;;;;;;1.40;1.30;;;;;;;13.55;100.00;99441.78;4832646;29;20222;-90
2023/09/20 00:33:39;;;;;;;1.50;1.20;;;;;;;13.52;100.00;99433.38;5440517;24;20698;-89
2023/09/20 00:36:06;;;;;;;2.17;1.30;;;;;;;13.53;100.00;99433.13;4838731;29;20216;-89
2023/09/20 00:38:35;;;;;;;1.80;1.40;;;;;;;13.52;100.00;99439.59;4827298;29;20224;-89
2023/09/20 00:41:06;;;;;;;1.87;1.07;;;;;;;13.51;100.00;99439.81;4830018;29;20201;-89
2023/09/20 00:43:38;;;;;;;2.57;1.30;;;;;;;13.52;100.00;99444.16;4832491;29;20251;-89
2023/09/20 00:46:09;;;;;;;1.20;1.10;;;;;;;13.49;100.00;99441.91;4841710;29;20205;-87
2023/09/20 00:51:39;;;;;;;1.87;1.27;;;;;;;13.45;100.00;99446.97;5130586;23;20237;-89
2023/09/20 00:57:14;;;;;;;1.50;1.40;;;;;;;13.40;100.00;99444.19;5374713;23;20731;-89
2023/09/20 01:12:17;;;;;;;1.27;1.17;;;;;;;13.26;100.00;99444.72;5456642;23;20238;-86
2023/09/20 01:14:56;;;;;;;1.87;1.23;;;;;;;13.25;100.00;99443.13;5130350;24;20252;-86
2023/09/20 01:17:27;;;;;;;1.47;1.30;;;;;;;13.22;100.00;99445.22;4830020;29;20719;-85
2023/09/20 05:57:14;;;;;;;5.13;1.80;;;;;;;14.46;100.00;99461.28;5565363;23;20236;-87
2023/09/20 05:59:44;;;;;;;4.27;1.90;;;;;;;14.60;100.00;99459.03;4828758;29;20213;-89
2023/09/20 06:02:11;;;;;;;6.20;1.97;;;;;;;14.73;100.00;99461.34;4815688;29;20237;-90
2023/09/20 06:04:43;;;;;;;9.73;2.10;;;;;;;14.85;100.00;99462.03;4817676;29;20205;-89
2023/09/20 06:07:11;;;;;;;4.83;2.10;;;;;;;14.97;100.00;99458.16;4828028;29;21676;-89
2023/09/20 06:09:41;;;;;;;4.87;2.20;;;;;;;15.09;100.00;99454.47;4818264;29;20691;-89
2023/09/20 06:12:09;;;;;;;4.73;1.97;;;;;;;15.22;100.00;99454.91;4821301;29;20300;-88
2023/09/20 06:14:37;;;;;;;2.73;1.90;;;;;;;15.34;100.00;99457.47;4824341;29;20212;-89
2023/09/20 06:17:05;;;;;;;3.63;1.87;;;;;;;15.47;100.00;99453.53;4809117;29;20205;-90
2023/09/20 06:19:35;;;;;;;602.47;65.10;;;;;;;15.56;100.00;99460.13;4819550;29;20299;-89
2023/09/20 06:22:07;;;;;;;333.37;39.07;;;;;;;15.70;100.00;99458.63;4818367;29;20235;-89
2023/09/20 06:24:48;;;;;;;21.53;5.00;;;;;;;15.80;100.00;99454.16;4821381;29;20295;-89
2023/09/20 06:27:16;;;;;;;9.77;3.03;;;;;;;15.94;100.00;99451.00;4812341;29;20231;-88
2023/09/20 06:29:46;;;;;;;3.93;1.90;;;;;;;16.04;100.00;99464.59;4823471;29;20239;-89
2023/09/20 06:32:15;;;;;;;5.77;2.33;;;;;;;16.15;100.00;99455.47;4819916;29;20208;-88
2023/09/20 06:34:45;;;;;;;4.40;2.10;;;;;;;16.23;100.00;99460.41;4827096;29;20196;-88
2023/09/20 06:37:27;;;;;;;5.37;1.90;;;;;;;16.38;100.00;99470.50;4818147;29;20209;-89
2023/09/20 06:39:56;;;;;;;4.30;2.00;;;;;;;16.49;100.00;99458.66;4821147;29;20208;-89
2023/09/20 06:42:25;;;;;;;2.77;1.77;;;;;;;16.60;100.00;99455.81;4825527;29;20263;-89
2023/09/20 06:44:55;;;;;;;3.90;1.87;;;;;;;16.72;100.00;99458.28;4824338;29;20304;-88
2023/09/20 06:47:28;;;;;;;5.47;2.03;;;;;;;16.85;100.00;99459.66;4811788;29;20205;-88
2023/09/20 06:50:03;;;;;;;2.60;1.60;;;;;;;16.95;100.00;99457.84;4821322;29;20674;-88
2023/09/20 06:52:30;;;;;;;3.93;1.97;;;;;;;17.08;100.00;99456.50;4839734;29;20228;-88
2023/09/20 06:55:04;;;;;;;4.87;1.90;;;;;;;17.21;100.00;99457.91;4805873;29;20287;-88
2023/09/20 06:57:33;;;;;;;4.67;1.97;;;;;;;17.33;100.00;99463.91;4822094;29;20247;-88
2023/09/20 07:00:15;;;;;;;6.27;1.97;;;;;;;17.44;100.00;99458.25;4830300;29;20686;-88
2023/09/20 07:02:53;;;;;;;3.27;1.83;;;;;;;17.58;100.00;99456.69;4820294;29;20256;-88
2023/09/20 07:05:28;;;;;;;4.77;1.87;;;;;;;17.72;100.00;99456.13;4803769;29;20212;-90
2023/09/20 07:08:01;;;;;;;2.93;1.90;;;;;;;17.84;100.00;99451.25;4822918;29;20208;-88
2023/09/20 07:10:32;;;;;;;3.23;2.03;;;;;;;17.96;100.00;99451.81;4832461;29;20208;-87
2023/09/20 07:13:05;;;;;;;2.70;1.93;;;;;;;18.07;100.00;99453.41;4798814;29;20220;-88
2023/09/20 07:15:35;;;;;;;2.53;2.10;;;;;;;18.16;100.00;99448.25;4823931;29;20270;-87
2023/09/20 07:18:12;;;;;;;3.60;2.30;;;;;;;18.26;100.00;99446.34;4820983;29;20302;-90
2023/09/20 07:20:43;;;;;;;3.73;2.13;;;;;;;18.42;100.00;99450.66;4820265;29;20208;-88
2023/09/20 07:23:15;;;;;;;4.00;2.07;;;;;;;18.54;100.00;99449.56;4821917;29;20280;-87
2023/09/20 07:25:45;;;;;;;2.83;2.17;;;;;;;18.66;100.00;99455.50;4820016;29;20219;-87
2023/09/20 07:28:23;;;;;;;3.60;2.00;;;;;;;18.76;100.00;99452.72;4813223;29;20705;-88
2023/09/20 07:30:57;;;;;;;4.90;2.00;;;;;;;18.88;100.00;99451.34;4829043;29;20294;-88
2023/09/20 07:33:24;;;;;;;4.10;2.00;;;;;;;18.96;100.00;99444.50;4812756;29;20215;-88
2023/09/20 07:36:00;;;;;;;3.03;2.07;;;;;;;19.14;100.00;99445.78;4824768;29;20247;-88
2023/09/20 07:38:29;;;;;;;4.83;2.10;;;;;;;19.26;100.00;99449.81;4799575;29;20210;-88
2023/09/20 07:41:17;;;;;;;3.37;1.97;;;;;;;19.42;100.00;99441.53;4813830;29;20219;-88
2023/09/20 07:43:51;;;;;;;3.80;2.30;;;;;;;19.57;100.00;99436.03;4830149;29;20237;-88
2023/09/20 07:46:20;;;;;;;2.30;2.10;;;;;;;19.71;100.00;99429.69;4812696;29;20224;-88
2023/09/20 07:48:50;;;;;;;4.27;2.03;;;;;;;19.81;100.00;99433.41;4805700;29;20217;-88
2023/09/20 07:51:31;;;;;;;4.77;1.90;;;;;;;19.87;100.00;99433.09;4814084;29;20233;-87
2023/09/20 07:54:01;;;;;;;3.53;1.70;;;;;;;19.96;100.00;99434.09;4813763;29;20206;-88
2023/09/20 07:56:32;;;;;;;3.17;1.70;;;;;;;20.08;100.00;99430.97;4839984;29;20230;-88
2023/09/20 07:59:03;;;;;;;2.27;2.07;;;;;;;20.17;100.00;99431.97;4824379;29;20234;-88
2023/09/20 08:01:33;;;;;;;2.10;1.90;;;;;;;20.28;100.00;99435.41;4810504;29;20209;-87
2023/09/20 08:04:06;;;;;;;3.07;1.77;;;;;;;20.35;100.00;99431.28;4816570;29;20232;-88
2023/09/20 08:06:36;;;;;;;2.57;1.90;;;;;;;20.43;100.00;99429.84;4818915;29;20224;-87
2023/09/20 08:09:07;;;;;;;3.53;1.50;;;;;;;20.52;100.00;99434.38;4805908;29;20672;-89
2023/09/20 08:11:40;;;;;;;1.70;1.60;;;;;;;20.69;100.00;99433.91;4813563;29;20213;-88
2023/09/20 08:14:08;;;;;;;1.67;1.50;;;;;;;20.78;100.00;99434.06;4813541;29;20208;-88
2023/09/20 08:16:37;;;;;;;2.65;1.50;;;;;;;20.84;100.00;99436.44;4833222;29;20295;-89
2023/09/20 08:19:31;;;;;;;2.72;1.30;;;;;;;20.96;100.00;99436.00;4805535;29;20211;-87
2023/09/20 08:22:03;;;;;;;2.08;1.25;;;;;;;21.09;100.00;99441.53;4803999;29;20296;-88
2023/09/20 09:00:54;;;;;;;1.35;1.13;;;;;;;22.62;100.00;99398.97;4836187;29;20194;-88
2023/09/20 09:03:24;;;;;;;1.20;1.10;;;;;;;22.76;100.00;99391.59;4813038;29;20429;-88
2023/09/20 09:06:00;;;;;;;1.17;1.08;;;;;;;22.79;100.00;99380.88;4807632;29;20204;-87
2023/09/20 09:08:34;;;;;;;1.38;1.00;;;;;;;22.97;100.00;99376.38;4810166;29;20232;-90
2023/09/20 09:11:04;;;;;;;1.98;1.10;;;;;;;23.07;100.00;99373.44;4797541;29;20281;-86
2023/09/20 09:13:32;;;;;;;1.50;1.05;;;;;;;23.16;100.00;99365.31;4821782;29;20212;-88
2023/09/20 09:16:04;;;;;;;1.73;1.08;;;;;;;23.25;100.00;99367.00;4837361;29;20235;-87
2023/09/20 09:18:32;;;;;;;1.55;1.05;;;;;;;23.26;100.00;99354.13;4799950;29;20220;-89
2023/09/20 09:21:08;;;;;;;1.50;1.17;;;;;;;23.36;100.00;99364.03;4827605;29;20200;-86
2023/09/20 09:23:44;;;;;;;2.55;1.30;;;;;;;23.38;100.00;99359.84;4840179;29;20241;-86
2023/09/20 09:26:16;;;;;;;1.25;1.10;;;;;;;;;;4823186;29;20215;-87
2023/09/20 09:28:50;;;;;;;2.78;1.45;;;;;;;23.54;100.00;99352.13;4833171;29;20663;-87
2023/09/20 09:31:19;;;;;;;1.42;1.27;;;;;;;23.56;100.00;99344.44;4839300;29;20202;-87
2023/09/20 09:33:51;;;;;;;1.33;1.23;;;;;;;23.61;100.00;99347.00;4807132;29;20203;-87
2023/09/20 09:36:25;;;;;;;1.30;1.20;;;;;;;23.60;100.00;99342.69;4825425;29;20212;-87
2023/09/20 09:39:14;;;;;;;1.58;1.48;;;;;;;23.69;100.00;99341.63;4830185;29;20227;-87
2023/09/20 09:42:00;;;;;;;1.50;1.40;;;;;;;23.72;100.00;99336.63;4809618;29;20208;-86
2023/09/20 09:44:52;;;;;;;1.33;1.23;;;;;;;23.89;100.00;99329.31;5090661;27;20533;-81
2023/09/20 09:47:20;;;;;;;1.60;1.50;;;;;;;23.94;100.00;99331.91;5059937;28;20557;-82
2023/09/20 09:49:51;;;;;;;2.45;1.40;;;;;;;23.89;100.00;99326.56;5090283;28;20192;-81
2023/09/20 09:52:23;;;;;;;2.17;1.63;;;;;;;23.92;100.00;99325.97;5073633;28;20258;-81
2023/09/20 09:54:55;;;;;;;3.15;1.50;;;;;;;23.92;100.00;99325.97;5089431;28;20180;-81
2023/09/20 09:57:24;;;;;;;1.48;1.33;;;;;;;24.03;100.00;99327.28;5071473;28;20199;-81
2023/09/20 09:59:52;;;;;;;1.63;1.50;;;;;;;24.10;100.00;99319.44;5094277;28;20192;-82
2023/09/20 10:02:24;;;;;;;3.35;1.50;;;;;;;24.19;100.00;99319.50;5088707;28;20203;-82
2023/09/20 10:05:02;;;;;;;1.23;1.13;;;;;;;24.21;100.00;99311.81;5102715;28;20198;-82
2023/09/20 10:07:33;;;;;;;1.58;1.48;;;;;;;24.20;100.00;99312.09;5098536;28;20200;-81
2023/09/20 10:10:08;;;;;;;1.83;1.40;;;;;;;24.26;100.00;99300.72;5096655;28;20194;-82
2023/09/20 10:12:39;;;;;;;2.65;1.50;;;;;;;24.43;100.00;99303.50;5090417;28;20692;-82
2023/09/20 10:15:09;;;;;;;1.88;1.40;;;;;;;24.59;100.00;99295.59;5089084;28;20212;-81
2023/09/20 10:17:52;;;;;;;1.85;1.60;;;;;;;24.72;100.00;99299.34;5105719;28;20211;-81
2023/09/20 10:20:19;;;;;;;1.60;1.50;;;;;;;24.75;100.00;99285.00;5072089;28;20228;-81
2023/09/20 10:22:48;;;;;;;1.67;1.40;;;;;;;24.81;100.00;99281.00;5069449;28;20222;-82
2023/09/20 10:25:36;;;;;;;1.55;1.45;;;;;;;24.93;100.00;99283.91;5069422;28;20223;-83
2023/09/20 10:28:08;;;;;;;2.33;1.60;;;;;;;24.92;100.00;99279.56;5074150;28;20204;-82
2023/09/20 10:31:04;;;;;;;3.20;1.92;;;;;;;25.07;100.00;99278.25;5088586;28;20275;-82
2023/09/20 10:33:48;;;;;;;1.50;1.40;;;;;;;25.15;100.00;99272.78;5053290;28;20200;-81
2023/09/20 10:36:24;;;;;;;1.60;1.50;;;;;;;25.32;100.00;99272.78;5058598;28;20680;-83
2023/09/20 10:39:11;;;;;;;1.60;1.50;;;;;;;25.48;100.00;99267.56;5075326;28;20200;-82
2023/09/20 10:41:40;;;;;;;1.88;1.52;;;;;;;25.45;100.00;99262.72;5068408;28;20187;-82
2023/09/20 10:44:08;;;;;;;2.72;1.60;;;;;;;25.51;100.00;99266.94;5077099;28;20237;-83
2023/09/20 10:46:37;;;;;;;2.92;1.75;;;;;;;25.58;100.00;99259.00;5070028;28;20220;-81
2023/09/20 10:49:06;;;;;;;1.60;1.50;;;;;;;25.68;100.00;99253.19;5068581;28;20193;-81
2023/09/20 10:51:41;;;;;;;2.80;1.60;;;;;;;25.66;100.00;99244.47;5064890;28;20199;-81
2023/09/20 10:54:26;;;;;;;1.90;1.38;;;;;;;25.66;100.00;99249.16;5074129;28;20193;-82
2023/09/20 10:56:58;;;;;;;1.73;1.50;;;;;;;25.66;100.00;99246.41;5071358;28;20211;-82
2023/09/20 10:59:31;;;;;;;1.73;1.50;;;;;;;25.67;100.00;99242.53;5069982;28;20205;-81
2023/09/20 11:02:12;;;;;;;3.03;1.88;;;;;;;25.76;100.00;99238.63;5053255;28;20200;-81
2023/09/20 11:04:40;;;;;;;2.03;1.80;;;;;;;25.87;100.00;99236.31;5058997;28;20214;-81
2023/09/20 11:07:09;;;;;;;1.52;1.42;;;;;;;25.88;100.00;99237.13;5055019;28;20202;-83
2023/09/20 11:09:42;;;;;;;1.80;1.70;;;;;;;25.91;100.00;99228.22;5062133;28;20204;-82
2023/09/20 11:12:11;;;;;;;2.85;1.95;;;;;;;25.93;100.00;99225.97;5056275;28;20606;-81
2023/09/20 11:14:41;;;;;;;2.17;1.77;;;;;;;26.05;100.00;99220.56;5054678;28;20206;-82
2023/09/20 11:17:13;;;;;;;4.65;1.77;;;;;;;26.11;100.00;99211.81;5054642;28;20208;-82
2023/09/20 11:19:42;;;;;;;2.40;1.73;;;;;;;26.15;100.00;99218.25;5058747;28;20260;-81
2023/09/20 11:22:10;;;;;;;3.20;1.80;;;;;;;26.25;100.00;99217.09;5063030;28;20205;-81
2023/09/20 11:24:41;;;;;;;2.38;1.70;;;;;;;26.24;100.00;99207.25;5038758;28;20219;-81
2023/09/20 11:27:11;;;;;;;2.10;1.60;;;;;;;26.41;100.00;99200.84;5062840;28;20258;-82
2023/09/20 11:29:43;;;;;;;2.28;1.95;;;;;;;26.53;100.00;99198.16;5054888;28;20201;-82
2023/09/20 11:32:12;;;;;;;3.25;2.00;;;;;;;26.54;100.00;99195.09;5058722;28;20204;-81
2023/09/20 11:34:49;;;;;;;3.67;1.70;;;;;;;26.54;100.00;99186.03;5054601;28;20272;-81
2023/09/20 11:37:19;;;;;;;1.88;1.67;;;;;;;26.54;100.00;99183.28;5065202;28;20208;-82
2023/09/20 11:39:50;;;;;;;1.77;1.67;;;;;;;26.63;100.00;99171.09;5053361;28;20671;-81
2023/09/20 11:42:26;;;;;;;3.53;1.85;;;;;;;26.61;100.00;99173.34;5059753;28;20253;-82
2023/09/20 11:44:57;;;;;;;3.17;1.95;;;;;;;26.74;100.00;99163.22;5055829;28;20236;-84
2023/09/20 11:47:46;;;;;;;3.30;1.52;;;;;;;26.89;100.00;99172.81;5047721;28;20186;-82
2023/09/20 11:50:15;;;;;;;1.83;1.42;;;;;;;26.90;100.00;99169.72;5065392;28;20746;-82
2023/09/20 11:52:48;;;;;;;2.10;1.50;;;;;;;26.97;100.00;99155.44;5055721;28;20247;-83
2023/09/20 11:55:19;;;;;;;2.35;1.80;;;;;;;27.09;100.00;99155.47;5054030;28;20641;-82
2023/09/20 11:57:48;;;;;;;2.67;1.70;;;;;;;27.28;100.00;99146.69;5060938;28;20676;-82
2023/09/20 12:00:23;;;;;;;5.82;1.80;;;;;;;27.47;100.00;99133.19;5065984;28;20714;-81
2023/09/20 12:02:53;;;;;;;2.33;1.60;;;;;;;27.62;100.00;99142.75;5061556;28;20189;-82
2023/09/20 12:05:22;;;;;;;3.13;1.50;;;;;;;27.70;99.16;99130.81;5073786;28;20288;-83
2023/09/20 12:08:00;;;;;;;2.03;1.20;;;;;;;27.77;97.04;99128.28;5064656;28;20197;-81
2023/09/20 12:10:29;;;;;;;4.45;1.50;;;;;;;27.74;93.24;99113.25;5052884;28;20201;-81
2023/09/20 12:12:57;;;;;;;2.20;1.40;;;;;;;27.91;92.61;99120.47;5059469;28;20209;-81
2023/09/20 12:15:28;;;;;;;4.05;1.42;;;;;;;27.93;90.80;99118.19;5058821;28;20205;-81
2023/09/20 12:17:56;;;;;;;2.58;1.30;;;;;;;28.04;88.99;99113.81;5062696;28;20190;-81
2023/09/20 12:20:25;;;;;;;2.83;1.75;;;;;;;28.10;87.56;99115.16;5063759;28;20248;-81
2023/09/20 12:23:01;;;;;;;2.72;1.50;;;;;;;28.19;86.90;99106.78;5052994;28;20186;-81
2023/09/20 12:25:30;;;;;;;3.13;1.70;;;;;;;28.19;85.23;99112.28;5056298;28;20223;-81
2023/09/20 12:27:59;;;;;;;2.25;1.50;;;;;;;28.26;86.11;99104.25;5057401;28;20190;-81
2023/09/20 12:30:28;;;;;;;2.15;1.30;;;;;;;28.26;85.51;99107.00;5039820;28;20618;-81
2023/09/20 12:32:56;;;;;;;2.63;1.50;;;;;;;28.40;84.97;99091.69;5056849;28;20202;-81
2023/09/20 12:35:28;;;;;;;3.72;1.67;;;;;;;28.40;84.01;99090.88;5051183;28;20221;-82
2023/09/20 12:37:57;;;;;;;2.80;1.70;;;;;;;28.42;86.07;99083.06;5052346;28;20200;-81
2023/09/20 12:40:24;;;;;;;1.90;1.40;;;;;;;28.42;83.51;99092.13;5059627;28;20194;-82
2023/09/20 12:42:52;;;;;;;3.10;1.50;;;;;;;28.40;83.40;99079.88;5052247;28;20656;-82
2023/09/20 12:45:21;;;;;;;5.75;1.50;;;;;;;28.41;83.90;99076.78;5054197;28;20668;-82
2023/09/20 12:47:53;;;;;;;3.92;1.70;;;;;;;28.28;83.89;99077.13;5052523;28;20263;-84
2023/09/20 12:50:21;;;;;;;3.15;1.50;;;;;;;28.36;84.49;99076.22;5058158;28;20194;-82
2023/09/20 12:52:50;;;;;;;2.35;1.50;;;;;;;28.34;84.35;99062.78;5051344;28;20206;-81
2023/09/20 12:55:19;;;;;;;4.15;1.73;;;;;;;28.26;83.68;99068.44;5068140;28;20691;-81
2023/09/20 12:57:47;;;;;;;3.97;1.80;;;;;;;28.24;85.41;99067.97;5057019;28;20627;-82
2023/09/20 13:00:19;;;;;;;2.92;1.63;;;;;;;28.33;87.01;99057.63;5052348;28;20212;-81
2023/09/20 13:03:08;;;;;;;3.13;1.40;;;;;;;28.36;85.96;99054.97;5052111;28;20197;-81
2023/09/20 13:05:36;;;;;;;2.45;1.80;;;;;;;28.37;86.86;99056.56;5052280;28;20193;-81
2023/09/20 13:08:07;;;;;;;3.05;1.80;;;;;;;28.33;86.02;99050.16;5055773;28;20202;-81
2023/09/20 13:10:35;;;;;;;2.30;1.60;;;;;;;28.40;85.66;99038.53;5058967;28;20205;-81
2023/09/20 13:13:08;;;;;;;3.65;1.70;;;;;;;28.46;86.14;99043.44;5063260;28;20221;-81
2023/09/20 13:15:41;;;;;;;3.08;1.90;;;;;;;28.39;84.86;99036.94;5062358;28;20664;-81
2023/09/20 13:18:11;;;;;;;3.15;1.60;;;;;;;28.27;86.17;99037.00;5054265;28;20357;-81
2023/09/20 13:20:41;;;;;;;3.97;1.92;;;;;;;28.39;87.33;99034.19;5054930;28;20217;-81
2023/09/20 13:23:09;;;;;;;3.03;1.80;;;;;;;28.49;87.98;99035.63;5054617;28;20288;-81
2023/09/20 13:25:40;;;;;;;4.03;1.90;;;;;;;28.46;85.90;99037.91;5057966;28;20190;-81
2023/09/20 13:28:08;;;;;;;5.28;2.28;;;;;;;28.50;87.15;99035.28;5062307;28;20232;-81
2023/09/20 13:30:40;;;;;;;6.65;4.47;;;;;;;28.49;87.11;99025.41;5056945;28;20279;-82
2023/09/20 13:33:10;;;;;;;6.18;3.65;;;;;;;28.33;87.38;99017.09;5068326;28;20196;-81
2023/09/20 13:35:39;;;;;;;3.72;1.92;;;;;;;28.33;88.47;99014.34;5062230;28;20682;-81
2023/09/20 13:38:06;;;;;;;2.22;1.80;;;;;;;28.37;89.31;99018.00;5061953;28;20193;-81
2023/09/20 13:40:37;;;;;;;3.20;1.83;;;;;;;28.48;88.24;99011.97;5060218;28;20212;-82
2023/09/20 13:43:04;;;;;;;4.25;1.92;;;;;;;28.39;88.65;98992.84;5055655;28;20230;-83
2023/09/20 13:45:32;;;;;;;4.72;1.95;;;;;;;28.29;89.74;99004.38;5063392;28;20227;-81
2023/09/20 13:48:00;;;;;;;4.47;2.10;;;;;;;28.28;90.07;99003.56;5059128;28;20200;-82
2023/09/20 13:50:28;;;;;;;4.05;2.10;;;;;;;28.34;89.19;99006.88;5051711;28;20201;-82
2023/09/20 13:52:57;;;;;;;3.90;1.90;;;;;;;28.34;89.97;99002.19;5050560;28;20197;-84
2023/09/20 13:55:24;;;;;;;4.00;2.10;;;;;;;28.42;88.08;98995.69;5058753;28;20193;-82
2023/09/20 13:58:01;;;;;;;4.38;1.88;;;;;;;28.27;88.72;98990.19;5062705;28;20199;-81
2023/09/20 14:00:29;;;;;;;2.78;2.00;;;;;;;28.31;89.78;98991.06;5051704;28;20207;-82
2023/09/20 14:02:57;;;;;;;3.63;2.00;;;;;;;28.41;89.64;98987.81;5050376;28;20649;-82
2023/09/20 14:05:26;;;;;;;3.30;2.05;;;;;;;28.41;89.84;98988.63;5059938;28;20275;-81
2023/09/20 14:07:57;;;;;;;3.80;2.05;;;;;;;28.30;87.53;98984.75;5056433;28;20227;-81
2023/09/20 14:10:31;;;;;;;8.32;2.30;;;;;;;28.27;86.94;98970.91;5060275;28;20197;-84
2023/09/20 14:12:59;;;;;;;5.40;2.22;;;;;;;28.09;87.21;98978.63;5048844;28;20291;-82
2023/09/20 14:15:29;;;;;;;2.60;1.85;;;;;;;27.97;87.73;98979.47;5056875;28;20260;-82
2023/09/20 14:18:00;;;;;;;6.45;2.10;;;;;;;28.05;88.41;98980.47;5051521;28;20217;-81
2023/09/20 14:20:29;;;;;;;4.22;2.10;;;;;;;28.08;88.41;98974.28;5053021;28;21087;-82
2023/09/20 14:22:57;;;;;;;4.68;2.03;;;;;;;28.10;88.00;98973.91;5062036;28;20285;-82
2023/09/20 14:25:25;;;;;;;3.83;2.25;;;;;;;27.97;87.97;98968.47;5063928;28;20230;-82
2023/09/20 14:27:55;;;;;;;4.22;2.00;;;;;;;27.98;89.00;98972.03;5050190;28;20710;-82
2023/09/20 14:30:25;;;;;;;4.85;2.08;;;;;;;27.76;89.27;98970.63;5053521;28;20221;-82
2023/09/20 14:32:55;;;;;;;3.58;2.17;;;;;;;27.82;88.71;98974.72;5058146;28;20284;-82
2023/09/20 14:35:24;;;;;;;4.38;2.45;;;;;;;27.81;89.20;98972.31;5063321;28;20202;-83
2023/09/20 14:37:53;;;;;;;4.32;2.20;;;;;;;27.78;88.54;98965.56;5055357;28;20289;-84
2023/09/20 14:40:22;;;;;;;4.95;2.30;;;;;;;27.68;89.88;98970.72;5060783;28;20244;-83
2023/09/20 14:42:55;;;;;;;4.05;2.30;;;;;;;27.62;90.22;98961.94;5056163;28;20283;-83
2023/09/20 14:45:29;;;;;;;6.40;2.20;;;;;;;27.64;89.29;98958.81;5059313;28;20221;-83
2023/09/20 14:48:00;;;;;;;3.70;2.40;;;;;;;27.57;90.35;98957.50;5067475;28;20203;-81
2023/09/20 14:50:30;;;;;;;3.30;1.92;;;;;;;27.50;89.63;98950.94;5057906;28;20193;-82
2023/09/20 14:52:59;;;;;;;5.65;2.20;;;;;;;27.44;89.63;98944.84;5062878;28;20690;-82
2023/09/20 14:55:28;;;;;;;3.03;2.13;;;;;;;27.31;90.04;98946.03;5064923;28;20206;-82
2023/09/20 14:57:57;;;;;;;5.20;2.30;;;;;;;27.31;90.52;98948.78;5061903;28;20204;-81
2023/09/20 15:00:25;;;;;;;4.90;2.08;;;;;;;27.26;90.59;98943.50;5057840;28;20336;-81
2023/09/20 15:02:55;;;;;;;5.00;2.00;;;;;;;27.25;90.13;98941.91;5062106;28;20671;-81
2023/09/20 15:05:23;;;;;;;4.82;2.13;;;;;;;27.23;90.36;98948.91;5058430;28;20761;-82
2023/09/20 15:07:53;;;;;;;3.80;2.00;;;;;;;27.22;89.37;98952.81;5061017;28;20198;-81
2023/09/20 15:10:24;;;;;;;3.70;2.03;;;;;;;27.12;90.12;98949.38;5061947;28;20205;-81
2023/09/20 15:12:57;;;;;;;3.92;2.00;;;;;;;27.03;90.08;98950.63;5061411;28;20204;-83
2023/09/20 15:15:28;;;;;;;3.92;1.95;;;;;;;26.92;91.23;98939.28;5067443;28;20611;-82
2023/09/20 15:17:58;;;;;;;4.40;2.22;;;;;;;26.97;91.25;98939.06;5064230;28;20204;-82
2023/09/20 15:20:31;;;;;;;3.05;1.92;;;;;;;26.92;91.56;98942.03;5060936;28;20226;-81
2023/09/20 15:22:59;;;;;;;4.90;2.35;;;;;;;26.86;91.31;98931.66;5061148;28;20212;-84
2023/09/20 15:25:29;;;;;;;3.80;2.03;;;;;;;26.78;92.51;98935.28;5052767;28;20300;-82
2023/09/20 15:27:58;;;;;;;4.18;2.00;;;;;;;26.64;93.42;98928.16;5062927;28;20276;-80
2023/09/20 15:30:28;;;;;;;4.57;1.98;;;;;;;26.57;93.38;98930.69;5067895;28;20189;-81
2023/09/20 15:32:57;;;;;;;7.13;2.30;;;;;;;26.47;93.86;98925.63;5053563;28;20564;-80
2023/09/20 15:35:26;;;;;;;6.05;2.20;;;;;;;26.40;95.02;98924.59;5060812;28;20240;-80
2023/09/20 15:37:55;;;;;;;7.65;2.13;;;;;;;26.37;95.92;98930.75;5066288;28;20201;-79
2023/09/20 15:40:26;;;;;;;4.97;2.20;;;;;;;26.22;97.02;98932.22;5070813;28;20185;-81
2023/09/20 15:42:56;;;;;;;4.35;2.40;;;;;;;26.16;97.45;98925.31;5069387;28;20300;-81
2023/09/20 15:45:25;;;;;;;4.07;2.00;;;;;;;26.10;98.75;98926.66;5053078;28;20737;-81
2023/09/20 15:47:54;;;;;;;4.25;2.10;;;;;;;26.07;100.00;98919.91;5064046;28;20224;-80
2023/09/20 15:50:21;;;;;;;4.68;2.20;;;;;;;25.84;100.00;98919.50;5058662;28;20682;-80
2023/09/20 15:52:49;;;;;;;4.45;2.20;;;;;;;25.80;100.00;98924.03;5061363;28;20656;-80
2023/09/20 15:55:17;;;;;;;3.40;2.20;;;;;;;25.68;100.00;98926.72;5051988;28;20212;-80
2023/09/20 15:57:45;;;;;;;7.00;2.65;;;;;;;25.61;100.00;98928.41;5055841;28;20225;-80
2023/09/20 16:00:13;;;;;;;3.13;2.38;;;;;;;25.54;100.00;98933.59;5056748;28;20311;-81
2023/09/20 16:02:43;;;;;;;5.78;2.38;;;;;;;25.37;100.00;98931.78;5057350;28;20255;-81
2023/09/20 16:05:15;;;;;;;4.68;2.08;;;;;;;25.31;100.00;98930.38;5053262;28;20217;-83
2023/09/20 16:07:45;;;;;;;6.95;2.38;;;;;;;25.21;100.00;98928.00;5059864;28;20292;-81
2023/09/20 16:10:17;;;;;;;4.72;2.47;;;;;;;25.32;100.00;98934.72;5049481;28;20585;-81
2023/09/20 16:12:46;;;;;;;3.15;2.22;;;;;;;25.03;100.00;98935.53;5046787;28;20236;-82
2023/09/20 16:15:16;;;;;;;2.47;2.08;;;;;;;24.96;100.00;98924.31;5056867;28;20207;-81
2023/09/20 16:17:45;;;;;;;6.22;2.38;;;;;;;24.85;100.00;98928.53;5059415;28;20194;-81
2023/09/20 16:20:16;;;;;;;4.85;2.60;;;;;;;24.81;100.00;98919.38;5052974;28;20214;-81
2023/09/20 16:22:46;;;;;;;5.40;2.50;;;;;;;24.61;100.00;98920.91;5061001;28;20190;-81
2023/09/20 16:25:13;;;;;;;4.50;2.58;;;;;;;24.49;100.00;98918.06;5054408;28;20209;-81
2023/09/20 16:27:41;;;;;;;6.35;2.63;;;;;;;24.42;100.00;98917.75;5058289;28;20247;-80
2023/09/20 16:30:11;;;;;;;3.67;2.53;;;;;;;24.35;100.00;98915.53;5058362;28;20212;-80
2023/09/20 16:32:39;;;;;;;5.70;2.70;;;;;;;24.24;100.00;98914.28;5053346;28;20276;-80
2023/09/20 16:35:11;;;;;;;5.95;2.85;;;;;;;24.26;100.00;98917.50;5065145;28;20196;-80
2023/09/20 16:37:45;;;;;;;4.15;2.60;;;;;;;24.08;100.00;98907.66;5053583;28;20702;-80
2023/09/20 16:40:14;;;;;;;3.35;2.28;;;;;;;24.01;100.00;98910.91;5062246;28;20566;-81
2023/09/20 16:42:42;;;;;;;3.67;2.53;;;;;;;23.98;100.00;98914.28;5052631;28;20620;-81
2023/09/20 16:45:17;;;;;;;6.68;2.72;;;;;;;23.87;100.00;98917.69;5052492;28;20225;-80
2023/09/20 16:47:45;;;;;;;5.20;2.53;;;;;;;23.87;100.00;98913.03;5054829;28;20662;-80
2023/09/20 16:50:13;;;;;;;5.93;2.80;;;;;;;23.78;100.00;98908.69;5044592;28;20196;-81
2023/09/20 16:52:42;;;;;;;4.45;2.30;;;;;;;23.68;100.00;98907.91;5060891;28;20196;-80
2023/09/20 16:55:12;;;;;;;5.63;2.58;;;;;;;23.56;100.00;98917.88;5051964;28;20287;-81
2023/09/20 16:57:43;;;;;;;3.97;2.22;;;;;;;23.50;100.00;98908.22;5062221;28;20200;-80
2023/09/20 17:00:15;;;;;;;4.35;2.60;;;;;;;23.38;100.00;98911.56;5057630;28;20694;-81
2023/09/20 17:02:43;;;;;;;4.00;2.88;;;;;;;23.30;100.00;98911.56;5052792;28;20205;-80
2023/09/20 17:05:14;;;;;;;4.68;2.90;;;;;;;23.22;100.00;98911.25;5052047;28;20228;-80
2023/09/20 17:07:43;;;;;;;5.80;2.83;;;;;;;23.15;100.00;98910.91;5055468;28;20190;-81
2023/09/20 17:10:12;;;;;;;4.18;2.63;;;;;;;23.05;100.00;98913.16;5050960;28;20253;-80
2023/09/20 17:12:44;;;;;;;3.88;2.65;;;;;;;23.00;100.00;98914.09;5057861;28;20663;-81
2023/09/20 17:15:13;;;;;;;6.05;2.75;;;;;;;22.92;100.00;98909.41;5052053;28;20617;-80
2023/09/20 17:17:41;;;;;;;3.25;2.85;;;;;;;22.90;100.00;98919.84;5058031;28;20556;-80
2023/09/20 17:20:11;;;;;;;5.72;3.35;;;;;;;22.86;100.00;98915.34;5055375;28;20237;-80